createdAt,value
2023-03-06T00:01:01.889Z,100253.80
2023-03-06T00:03:30.047Z,100250.80
2023-03-06T00:05:58.876Z,100251.20
2023-03-06T00:08:29.115Z,100245.40
2023-03-06T00:10:57.911Z,100246.40
2023-03-06T00:13:29.879Z,100249.20
2023-03-06T00:16:03.190Z,100245.40
2023-03-06T00:18:31.082Z,100239.40
2023-03-06T00:20:59.279Z,100237.40
2023-03-06T00:23:27.918Z,100234.80
2023-03-06T00:25:55.874Z,100232.20
2023-03-06T00:28:23.970Z,100228.60
2023-03-06T00:30:51.916Z,100220.80
2023-03-06T00:33:19.821Z,100221.20
2023-03-06T00:35:47.748Z,100218.40
2023-03-06T00:38:15.774Z,100222.00
2023-03-06T00:40:43.716Z,100217.00
2023-03-06T00:43:12.108Z,100216.00
2023-03-06T00:45:39.967Z,100208.20
2023-03-06T00:48:10.811Z,100208.20
2023-03-06T00:50:38.629Z,100202.00
2023-03-06T00:53:06.401Z,100195.20
2023-03-06T00:55:34.377Z,100192.40
2023-03-06T00:58:02.199Z,100194.00
2023-03-06T01:00:30.133Z,100191.40
2023-03-06T01:02:58.219Z,100186.40
2023-03-06T01:05:26.610Z,100181.60
2023-03-06T01:07:54.819Z,100174.80
2023-03-06T01:10:23.021Z,100181.60
2023-03-06T01:12:51.018Z,100179.60
2023-03-06T01:15:20.029Z,100180.00
2023-03-06T01:17:51.775Z,100179.80
2023-03-06T01:20:19.675Z,100182.80
2023-03-06T01:22:47.475Z,100180.20
2023-03-06T01:25:15.404Z,100176.60
2023-03-06T01:27:43.951Z,100172.60
2023-03-06T01:30:13.328Z,100177.00
2023-03-06T01:32:41.200Z,100182.00
2023-03-06T01:35:10.026Z,100175.60
2023-03-06T01:37:39.292Z,100174.60
2023-03-06T01:40:11.273Z,100174.20
2023-03-06T01:42:39.562Z,100173.20
2023-03-06T01:45:27.588Z,100170.00
2023-03-06T01:47:55.383Z,100166.80
2023-03-06T01:50:23.244Z,100165.20
2023-03-06T01:52:57.393Z,100163.60
2023-03-06T01:55:32.529Z,100162.20
2023-03-06T01:58:05.671Z,100164.00
2023-03-06T02:00:33.846Z,100160.20
2023-03-06T02:03:14.060Z,100155.60
2023-03-06T02:05:44.146Z,100156.40
2023-03-06T02:08:17.343Z,100154.20
2023-03-06T02:11:11.286Z,100156.80
2023-03-06T02:13:40.430Z,100156.00
2023-03-06T02:16:10.192Z,100153.20
2023-03-06T02:18:41.761Z,100151.20
2023-03-06T02:21:13.108Z,100143.60
2023-03-06T02:23:50.627Z,100133.60
2023-03-06T02:26:19.704Z,100135.80
2023-03-06T02:28:47.653Z,100130.80
2023-03-06T02:31:28.096Z,100130.20
2023-03-06T02:34:26.754Z,100121.80
2023-03-06T02:37:08.886Z,100117.40
2023-03-06T02:39:44.800Z,100115.20
2023-03-06T02:42:25.918Z,100109.60
2023-03-06T02:44:58.605Z,100106.20
2023-03-06T02:47:26.563Z,100105.20
2023-03-06T02:49:55.524Z,100101.60
2023-03-06T02:52:23.905Z,100103.80
2023-03-06T02:54:51.686Z,100104.80
2023-03-06T02:57:19.764Z,100095.80
2023-03-06T02:59:47.608Z,100096.20
2023-03-06T03:02:16.737Z,100096.00
2023-03-06T03:04:45.325Z,100093.40
2023-03-06T03:07:13.433Z,100094.60
2023-03-06T03:09:41.464Z,100094.40
2023-03-06T03:12:09.744Z,100090.00
2023-03-06T03:14:37.543Z,100084.20
2023-03-06T03:17:05.547Z,100082.20
2023-03-06T03:19:33.351Z,100077.20
2023-03-06T03:22:01.605Z,100071.40
2023-03-06T03:24:29.567Z,100068.40
2023-03-06T03:26:57.626Z,100065.00
2023-03-06T03:29:25.694Z,100062.00
2023-03-06T03:31:53.733Z,100062.40
2023-03-06T03:34:25.371Z,100056.00
2023-03-06T03:36:54.733Z,100063.20
2023-03-06T03:39:22.981Z,100061.60
2023-03-06T03:41:50.884Z,100058.80
2023-03-06T03:44:20.281Z,100058.40
2023-03-06T03:46:50.745Z,100058.80
2023-03-06T03:49:21.601Z,100062.20
2023-03-06T03:51:49.515Z,100051.40
2023-03-06T03:54:17.993Z,100047.40
2023-03-06T03:56:47.275Z,100040.80
2023-03-06T03:59:19.523Z,100027.80
2023-03-06T04:01:56.113Z,100024.40
2023-03-06T04:04:24.980Z,100027.40
2023-03-06T04:06:53.751Z,100020.80
2023-03-06T04:09:21.962Z,100025.00
2023-03-06T04:11:50.018Z,100014.60
2023-03-06T04:14:17.892Z,100015.00
2023-03-06T04:16:45.893Z,100007.60
2023-03-06T04:19:13.788Z,99997.60
2023-03-06T04:21:41.554Z,100004.60
2023-03-06T04:24:09.757Z,100002.60
2023-03-06T04:26:37.610Z,100003.40
2023-03-06T04:29:06.088Z,100003.60
2023-03-06T04:31:34.340Z,100008.00
2023-03-06T04:34:02.513Z,100006.60
2023-03-06T04:36:33.532Z,99994.60
2023-03-06T04:39:13.850Z,99985.40
2023-03-06T04:41:42.509Z,99989.00
2023-03-06T04:44:10.683Z,99988.80
2023-03-06T04:46:38.792Z,99981.40
2023-03-06T04:49:07.231Z,99976.40
2023-03-06T04:51:36.845Z,99980.20
2023-03-06T04:54:05.127Z,99980.40
2023-03-06T04:56:34.432Z,99979.20
2023-03-06T04:59:04.180Z,99968.60
2023-03-06T05:01:32.000Z,99962.60
2023-03-06T05:03:59.800Z,99960.20
2023-03-06T05:06:27.671Z,99956.20
2023-03-06T05:08:55.535Z,99946.20
2023-03-06T05:11:23.567Z,99947.80
2023-03-06T05:13:51.655Z,99943.80
2023-03-06T05:16:19.466Z,99947.40
2023-03-06T05:18:50.169Z,99942.60
2023-03-06T05:21:18.479Z,99937.20
2023-03-06T05:23:46.275Z,99932.40
2023-03-06T05:26:15.912Z,99930.20
2023-03-06T05:28:43.840Z,99933.40
2023-03-06T05:31:12.037Z,99925.60
2023-03-06T05:33:40.015Z,99930.20
2023-03-06T05:36:09.769Z,99925.80
2023-03-06T05:38:37.625Z,99922.20
2023-03-06T05:41:05.472Z,99920.40
2023-03-06T05:43:33.293Z,99919.40
2023-03-06T05:46:07.082Z,99911.60
2023-03-06T05:48:37.486Z,99911.40
2023-03-06T05:51:06.372Z,99914.20
2023-03-06T05:53:34.293Z,99912.20
2023-03-06T05:56:06.452Z,99913.00
2023-03-06T05:58:35.443Z,99916.60
2023-03-06T06:01:11.563Z,99912.00
2023-03-06T06:03:39.721Z,99908.80
2023-03-06T06:06:10.666Z,99908.20
2023-03-06T06:08:39.034Z,99910.60
2023-03-06T06:11:09.904Z,99909.40
2023-03-06T06:13:38.759Z,99906.00
2023-03-06T06:16:16.465Z,99903.00
2023-03-06T06:18:44.532Z,99902.20
2023-03-06T06:21:14.755Z,99897.20
2023-03-06T06:23:42.807Z,99889.80
2023-03-06T06:26:11.238Z,99889.20
2023-03-06T06:28:39.020Z,99889.60
2023-03-06T06:31:12.567Z,99885.00
2023-03-06T06:33:41.314Z,99879.60
2023-03-06T06:36:21.821Z,99888.40
2023-03-06T06:38:50.198Z,99882.60
2023-03-06T06:41:53.041Z,99879.20
2023-03-06T06:44:08.603Z,99878.80
2023-03-06T06:49:26.306Z,99878.20
2023-03-06T06:51:54.207Z,99874.40
2023-03-06T06:54:22.407Z,99869.40
2023-03-06T06:56:51.156Z,99874.20
2023-03-06T06:59:19.256Z,99859.80
2023-03-06T07:01:47.236Z,99860.20
2023-03-06T07:04:15.754Z,99856.20
2023-03-06T07:06:45.076Z,99858.40
2023-03-06T07:09:13.605Z,99861.00
2023-03-06T07:11:42.167Z,99857.20
2023-03-06T07:14:09.947Z,99855.40
2023-03-06T07:16:37.800Z,99852.80
2023-03-06T07:19:06.778Z,99853.60
2023-03-06T07:21:34.960Z,99853.60
2023-03-06T07:24:02.724Z,99855.40
2023-03-06T07:26:32.780Z,99847.20
2023-03-06T07:29:03.899Z,99843.00
2023-03-06T07:31:32.688Z,99842.80
2023-03-06T07:34:01.922Z,99843.80
2023-03-06T07:36:31.178Z,99829.60
2023-03-06T07:38:58.951Z,99830.80
2023-03-06T07:41:26.845Z,99831.80
2023-03-06T07:43:54.651Z,99823.80
2023-03-06T07:46:22.464Z,99821.80
2023-03-06T07:48:50.240Z,99816.00
2023-03-06T07:51:21.834Z,99812.40
2023-03-06T07:53:50.018Z,99807.20
2023-03-06T07:56:17.849Z,99811.00
2023-03-06T07:58:47.873Z,99812.80
2023-03-06T08:01:23.476Z,99821.40
2023-03-06T08:03:52.139Z,99812.20
2023-03-06T08:06:26.583Z,99818.00
2023-03-06T08:08:56.440Z,99802.80
2023-03-06T08:11:30.448Z,99800.00
2023-03-06T08:14:00.175Z,99799.60
2023-03-06T08:16:30.700Z,99803.80
2023-03-06T08:18:58.957Z,99798.40
2023-03-06T08:21:28.376Z,99802.60
2023-03-06T08:23:56.874Z,99795.00
2023-03-06T08:26:28.303Z,99792.00
2023-03-06T08:28:59.157Z,99794.60
2023-03-06T08:31:31.188Z,99791.20
2023-03-06T08:34:04.332Z,99793.60
2023-03-06T08:36:33.015Z,99794.20
2023-03-06T08:39:01.263Z,99796.80
2023-03-06T08:41:30.199Z,99792.60
2023-03-06T08:43:58.655Z,99793.00
2023-03-06T08:46:29.733Z,99795.40
2023-03-06T08:48:58.170Z,99798.40
2023-03-06T08:51:26.717Z,99792.00
2023-03-06T08:53:56.718Z,99790.40
2023-03-06T08:56:31.197Z,99791.00
2023-03-06T08:59:01.588Z,99791.40
2023-03-06T09:01:34.751Z,99791.00
2023-03-06T09:04:07.083Z,99786.40
2023-03-06T09:06:40.929Z,99779.00
2023-03-06T09:09:09.520Z,99776.60
2023-03-06T09:11:37.367Z,99771.00
2023-03-06T09:14:06.109Z,99771.60
2023-03-06T09:16:34.079Z,99773.00
2023-03-06T09:19:02.062Z,99764.80
2023-03-06T09:21:30.029Z,99765.80
2023-03-06T09:23:59.643Z,99760.20
2023-03-06T09:26:39.540Z,99754.80
2023-03-06T09:29:12.621Z,99755.60
2023-03-06T09:31:40.597Z,99751.80
2023-03-06T09:34:08.482Z,99751.40
2023-03-06T09:36:53.351Z,99745.60
2023-03-06T09:39:24.362Z,99740.80
2023-03-06T09:41:52.676Z,99734.00
2023-03-06T09:44:26.205Z,99735.40
2023-03-06T09:47:22.953Z,99730.60
2023-03-06T09:49:50.770Z,99735.20
2023-03-06T09:52:45.980Z,99728.00
2023-03-06T09:55:27.110Z,99725.60
2023-03-06T09:58:07.169Z,99720.40
2023-03-06T10:00:45.619Z,99721.60
2023-03-06T10:03:39.788Z,99725.60
2023-03-06T10:06:22.553Z,99722.20
2023-03-06T10:09:06.095Z,99722.80
2023-03-06T10:11:49.521Z,99714.00
2023-03-06T10:14:40.141Z,99709.00
2023-03-06T10:17:17.741Z,99705.20
2023-03-06T10:19:49.549Z,99704.60
2023-03-06T10:23:05.386Z,99701.60
2023-03-06T10:26:01.202Z,99701.60
2023-03-06T10:28:46.616Z,99703.40
2023-03-06T10:31:27.043Z,99699.80
2023-03-06T10:34:05.294Z,99698.00
2023-03-06T10:36:33.087Z,99696.20
2023-03-06T10:39:14.081Z,99694.20
2023-03-06T10:41:42.530Z,99685.80
2023-03-06T10:44:13.491Z,99685.40
2023-03-06T10:46:47.973Z,99679.40
2023-03-06T10:49:30.996Z,99678.20
2023-03-06T10:52:09.683Z,99687.80
2023-03-06T10:54:42.286Z,99680.20
2023-03-06T10:57:31.865Z,99680.00
2023-03-06T11:00:05.655Z,99675.40
2023-03-06T11:02:41.120Z,99669.20
2023-03-06T11:05:20.832Z,99669.40
2023-03-06T11:07:59.538Z,99667.20
2023-03-06T11:10:30.642Z,99664.00
2023-03-06T11:13:07.482Z,99671.20
2023-03-06T11:15:35.952Z,99668.40
2023-03-06T11:18:08.322Z,99666.20
2023-03-06T11:20:52.426Z,99658.40
2023-03-06T11:23:44.311Z,99648.60
2023-03-06T11:26:17.999Z,99648.60
2023-03-06T11:29:16.230Z,99651.00
2023-03-06T11:32:14.812Z,99649.40
2023-03-06T11:34:51.040Z,99641.40
2023-03-06T11:37:53.991Z,99646.20
2023-03-06T11:40:59.027Z,99642.40
2023-03-06T11:43:37.688Z,99641.80
2023-03-06T11:46:12.352Z,99643.80
2023-03-06T11:48:53.510Z,99639.00
2023-03-06T11:51:35.720Z,99631.20
2023-03-06T11:54:04.077Z,99629.20
2023-03-06T11:56:39.536Z,99626.40
2023-03-06T11:59:26.476Z,99627.00
2023-03-06T12:02:15.606Z,99618.80
2023-03-06T12:05:01.378Z,99608.20
2023-03-06T12:07:35.019Z,99614.60
2023-03-06T12:10:23.954Z,99610.20
2023-03-06T12:13:10.821Z,99610.40
2023-03-06T12:16:22.866Z,99603.60
2023-03-06T12:19:12.535Z,99604.40
2023-03-06T12:21:55.706Z,99598.80
2023-03-06T12:24:48.466Z,99596.40
2023-03-06T12:27:47.185Z,99592.40
2023-03-06T12:30:36.577Z,99585.60
2023-03-06T12:33:12.945Z,99574.00
2023-03-06T12:36:04.741Z,99566.60
2023-03-06T12:38:59.116Z,99569.40
2023-03-06T12:42:06.789Z,99566.40
2023-03-06T12:44:47.489Z,99561.80
2023-03-06T12:47:21.661Z,99552.40
2023-03-06T12:50:17.045Z,99548.80
2023-03-06T12:52:48.132Z,99542.80
2023-03-06T12:55:23.122Z,99533.60
2023-03-06T12:57:52.794Z,99527.40
2023-03-06T13:00:32.560Z,99531.00
2023-03-06T13:03:23.394Z,99523.80
2023-03-06T13:06:30.981Z,99514.60
2023-03-06T13:09:40.073Z,99515.40
2023-03-06T13:12:38.756Z,99514.80
2023-03-06T13:15:39.105Z,99510.40
2023-03-06T13:18:22.232Z,99501.80
2023-03-06T13:20:57.636Z,99502.40
2023-03-06T13:23:37.306Z,99499.80
2023-03-06T13:26:25.773Z,99496.60
2023-03-06T13:28:57.822Z,99486.40
2023-03-06T13:31:36.479Z,99487.00
2023-03-06T13:34:31.961Z,99477.60
2023-03-06T13:37:18.509Z,99478.60
2023-03-06T13:39:55.308Z,99474.80
2023-03-06T13:42:37.338Z,99468.60
2023-03-06T13:45:08.409Z,99472.40
2023-03-06T13:48:02.862Z,99468.20
2023-03-06T13:50:44.657Z,99476.60
2023-03-06T13:53:36.922Z,99470.80
2023-03-06T13:56:34.903Z,99471.40
2023-03-06T13:59:46.081Z,99475.00
2023-03-06T14:02:39.668Z,99475.80
2023-03-06T14:05:15.525Z,99469.60
2023-03-06T14:07:47.431Z,99474.00
2023-03-06T14:10:22.180Z,99471.40
2023-03-06T14:12:49.923Z,99471.80
2023-03-06T14:15:46.855Z,99466.40
2023-03-06T14:18:30.965Z,99464.00
2023-03-06T14:21:02.782Z,99468.00
2023-03-06T14:23:38.108Z,99458.20
2023-03-06T14:26:24.947Z,99457.00
2023-03-06T14:28:52.667Z,99457.00
2023-03-06T14:31:28.477Z,99448.60
2023-03-06T14:34:03.411Z,99445.00
2023-03-06T14:36:42.036Z,99444.60
2023-03-06T14:39:36.134Z,99439.40
2023-03-06T14:42:22.235Z,99436.80
2023-03-06T14:45:19.895Z,99434.40
2023-03-06T14:47:53.390Z,99437.80
2023-03-06T14:50:34.275Z,99437.60
2023-03-06T14:53:33.367Z,99437.80
2023-03-06T14:56:06.779Z,99432.80
2023-03-06T14:58:48.268Z,99431.40
2023-03-06T15:01:16.559Z,99424.20
2023-03-06T15:03:55.039Z,99425.00
2023-03-06T15:06:40.363Z,99423.80
2023-03-06T15:09:16.712Z,99429.00
2023-03-06T15:11:53.777Z,99428.00
2023-03-06T15:14:29.639Z,99420.00
2023-03-06T15:17:40.586Z,99418.40
2023-03-06T15:21:14.122Z,99412.80
2023-03-06T15:23:45.603Z,99414.20
2023-03-06T15:26:33.968Z,99418.60
2023-03-06T15:29:13.783Z,99417.20
2023-03-06T15:31:46.188Z,99415.00
2023-03-06T15:34:23.603Z,99407.60
2023-03-06T15:36:55.725Z,99408.20
2023-03-06T15:39:39.904Z,99406.80
2023-03-06T15:42:21.017Z,99405.80
2023-03-06T15:45:03.289Z,99394.00
2023-03-06T15:47:31.577Z,99398.00
2023-03-06T15:49:59.309Z,99397.40
2023-03-06T15:52:27.176Z,99392.20
2023-03-06T15:54:55.097Z,99404.00
2023-03-06T15:57:29.284Z,99404.20
2023-03-06T16:00:00.207Z,99409.60
2023-03-06T16:02:28.120Z,99405.40
2023-03-06T16:04:56.149Z,99400.60
2023-03-06T16:07:23.913Z,99396.60
2023-03-06T16:09:52.155Z,99389.00
2023-03-06T16:12:22.781Z,99393.20
2023-03-06T16:14:50.610Z,99388.80
2023-03-06T16:17:18.441Z,99395.20
2023-03-06T16:19:46.236Z,99390.60
2023-03-06T16:22:14.542Z,99385.00
2023-03-06T16:24:43.276Z,99381.00
2023-03-06T16:27:19.152Z,99384.60
2023-03-06T16:29:47.036Z,99382.80
2023-03-06T16:32:14.930Z,99379.40
2023-03-06T16:34:42.731Z,99381.20
2023-03-06T16:37:13.549Z,99377.60
2023-03-06T16:39:41.477Z,99372.40
2023-03-06T16:42:09.332Z,99375.20
2023-03-06T16:44:37.115Z,99370.00
2023-03-06T16:47:05.114Z,99372.20
2023-03-06T16:49:32.913Z,99363.60
2023-03-06T16:52:00.712Z,99365.60
2023-03-06T16:54:28.495Z,99368.40
2023-03-06T16:56:56.377Z,99369.00
2023-03-06T16:59:25.242Z,99370.20
2023-03-06T17:01:53.027Z,99370.00
2023-03-06T17:04:20.865Z,99376.60
2023-03-06T17:06:48.671Z,99371.00
2023-03-06T17:09:16.746Z,99374.20
2023-03-06T17:11:46.853Z,99377.20
2023-03-06T17:14:14.990Z,99387.40
2023-03-06T17:16:42.949Z,99385.00
2023-03-06T17:19:15.227Z,99384.60
2023-03-06T17:21:44.313Z,99386.60
2023-03-06T17:24:12.120Z,99383.40
2023-03-06T17:26:40.243Z,99386.60
2023-03-06T17:29:09.546Z,99388.40
2023-03-06T17:31:37.438Z,99393.40
2023-03-06T17:34:05.278Z,99388.20
2023-03-06T17:36:33.541Z,99385.00
2023-03-06T17:39:03.392Z,99382.00
2023-03-06T17:41:32.843Z,99380.40
2023-03-06T17:44:01.785Z,99386.20
2023-03-06T17:46:34.698Z,99386.60
2023-03-06T17:49:03.383Z,99386.60
2023-03-06T17:51:31.140Z,99393.60
2023-03-06T17:53:58.996Z,99389.40
2023-03-06T17:56:27.516Z,99387.60
2023-03-06T17:58:57.167Z,99388.20
2023-03-06T18:01:28.474Z,99386.00
2023-03-06T18:03:58.618Z,99391.20
2023-03-06T18:06:30.083Z,99393.00
2023-03-06T18:08:58.453Z,99389.00
2023-03-06T18:11:27.174Z,99386.80
2023-03-06T18:13:55.052Z,99386.00
2023-03-06T18:16:26.003Z,99386.60
2023-03-06T18:18:56.472Z,99391.60
2023-03-06T18:21:26.293Z,99390.60
2023-03-06T18:23:54.204Z,99389.40
2023-03-06T18:26:26.697Z,99390.80
2023-03-06T18:28:58.238Z,99388.80
2023-03-06T18:31:33.759Z,99395.20
2023-03-06T18:34:09.864Z,99391.00
2023-03-06T18:36:38.870Z,99392.80
2023-03-06T18:39:10.281Z,99394.80
2023-03-06T18:41:38.321Z,99388.20
2023-03-06T18:44:06.542Z,99395.40
2023-03-06T18:46:37.821Z,99394.40
2023-03-06T18:49:06.763Z,99392.20
2023-03-06T18:51:35.424Z,99386.80
2023-03-06T18:54:05.893Z,99384.60
2023-03-06T18:56:35.062Z,99383.20
2023-03-06T18:59:05.069Z,99382.80
2023-03-06T19:01:34.082Z,99384.40
2023-03-06T19:04:04.698Z,99380.20
2023-03-06T19:06:32.689Z,99378.20
2023-03-06T19:09:02.144Z,99378.80
2023-03-06T19:11:31.972Z,99375.60
2023-03-06T19:14:00.761Z,99378.40
2023-03-06T19:16:31.218Z,99381.80
2023-03-06T19:18:59.354Z,99378.40
2023-03-06T19:21:28.811Z,99380.80
2023-03-06T19:23:57.522Z,99370.80
2023-03-06T19:26:26.961Z,99373.20
2023-03-06T19:28:55.114Z,99370.40
2023-03-06T19:31:27.053Z,99368.40
2023-03-06T19:33:56.830Z,99367.40
2023-03-06T19:36:33.283Z,99362.00
2023-03-06T19:39:05.125Z,99366.20
2023-03-06T19:41:33.661Z,99363.80
2023-03-06T19:44:03.340Z,99359.80
2023-03-06T19:46:32.216Z,99357.20
2023-03-06T19:49:09.940Z,99359.40
2023-03-06T19:51:38.523Z,99352.60
2023-03-06T19:54:06.307Z,99350.60
2023-03-06T19:56:34.131Z,99346.40
2023-03-06T19:59:02.129Z,99346.60
2023-03-06T20:01:29.991Z,99347.40
2023-03-06T20:03:59.776Z,99344.40
2023-03-06T20:06:33.576Z,99340.00
2023-03-06T20:09:06.032Z,99333.60
2023-03-06T20:11:34.267Z,99336.60
2023-03-06T20:14:04.705Z,99333.40
2023-03-06T20:16:34.205Z,99337.80
2023-03-06T20:19:02.532Z,99334.40
2023-03-06T20:21:35.373Z,99323.20
2023-03-06T20:24:05.271Z,99325.40
2023-03-06T20:26:34.778Z,99327.20
2023-03-06T20:29:03.196Z,99327.60
2023-03-06T20:31:31.103Z,99325.00
2023-03-06T20:34:00.507Z,99324.00
2023-03-06T20:36:35.985Z,99325.20
2023-03-06T20:39:08.998Z,99320.60
2023-03-06T20:41:37.945Z,99323.00
2023-03-06T20:44:13.412Z,99315.00
2023-03-06T20:46:41.983Z,99314.80
2023-03-06T20:49:13.264Z,99316.20
2023-03-06T20:51:42.342Z,99320.00
2023-03-06T20:54:13.982Z,99317.80
2023-03-06T20:56:46.028Z,99319.00
2023-03-06T20:59:14.326Z,99314.80
2023-03-06T21:01:45.056Z,99317.20
2023-03-06T21:04:14.813Z,99316.20
2023-03-06T21:06:46.772Z,99315.80
2023-03-06T21:09:17.078Z,99314.20
2023-03-06T21:11:45.937Z,99310.80
2023-03-06T21:14:14.966Z,99312.20
2023-03-06T21:16:43.931Z,99310.00
2023-03-06T21:19:12.487Z,99303.40
2023-03-06T21:21:40.358Z,99307.20
2023-03-06T21:24:08.538Z,99299.80
2023-03-06T21:26:36.441Z,99299.80
2023-03-06T21:29:05.092Z,99292.80
2023-03-06T21:31:33.559Z,99289.60
2023-03-06T21:34:04.524Z,99292.20
2023-03-06T21:36:34.068Z,99293.40
2023-03-06T21:39:02.269Z,99291.20
2023-03-06T21:41:32.174Z,99286.40
2023-03-06T21:44:04.975Z,99282.20
2023-03-06T21:46:34.810Z,99281.60
2023-03-06T21:49:05.244Z,99281.00
2023-03-06T21:51:34.414Z,99280.60
2023-03-06T21:54:02.897Z,99278.40
2023-03-06T21:56:33.055Z,99270.20
2023-03-06T21:59:01.345Z,99267.00
2023-03-06T22:01:30.184Z,99267.00
2023-03-06T22:03:59.940Z,99266.80
2023-03-06T22:06:30.196Z,99265.40
2023-03-06T22:09:00.301Z,99265.20
2023-03-06T22:11:31.404Z,99264.60
2023-03-06T22:13:59.648Z,99262.00
2023-03-06T22:16:28.206Z,99263.80
2023-03-06T22:18:56.432Z,99262.40
2023-03-06T22:21:25.242Z,99263.20
2023-03-06T22:23:59.392Z,99255.20
2023-03-06T22:26:29.206Z,99252.00
2023-03-06T22:28:57.178Z,99253.00
2023-03-06T22:31:28.535Z,99247.20
2023-03-06T22:34:00.067Z,99248.80
2023-03-06T22:36:32.813Z,99246.80
2023-03-06T22:39:02.752Z,99250.00
2023-03-06T22:41:31.266Z,99246.00
2023-03-06T22:44:02.510Z,99240.40
2023-03-06T22:46:32.244Z,99237.00
2023-03-06T22:49:01.289Z,99230.40
2023-03-06T22:51:29.748Z,99228.60
2023-03-06T22:53:58.256Z,99226.00
2023-03-06T22:56:26.318Z,99229.40
2023-03-06T22:58:54.258Z,99228.00
2023-03-06T23:01:25.868Z,99220.40
2023-03-06T23:03:58.001Z,99224.20
2023-03-06T23:06:31.526Z,99223.20
2023-03-06T23:09:07.566Z,99220.80
2023-03-06T23:11:53.624Z,99216.60
2023-03-06T23:14:40.267Z,99218.00
2023-03-06T23:17:26.904Z,99211.60
2023-03-06T23:20:13.740Z,99210.00
2023-03-06T23:23:00.221Z,99215.40
2023-03-06T23:25:44.298Z,99210.20
2023-03-06T23:28:12.343Z,99213.80
2023-03-06T23:30:42.209Z,99214.60
2023-03-06T23:33:11.072Z,99211.60
2023-03-06T23:35:39.116Z,99212.60
2023-03-06T23:38:07.206Z,99214.00
2023-03-06T23:40:35.336Z,99214.00
2023-03-06T23:43:03.864Z,99213.40
2023-03-06T23:45:32.318Z,99210.00
2023-03-06T23:48:00.236Z,99213.60
2023-03-06T23:50:28.124Z,99204.80
2023-03-06T23:52:55.916Z,99203.20
2023-03-06T23:55:23.735Z,99202.20
2023-03-06T23:57:51.663Z,99191.40
